Time;durP1;ratioP1;P1;durP2;ratioP2;P2;SDS_P1;SDS_P2;PMS_P1;PMS_P2;Temp;Humidity;BMP_temperature;BMP_pressure;BME280_temperature;BME280_humidity;BME280_pressure;Samples;Min_cycle;Max_cycle;Signal;HPM_P1;HPM_P2
2022/06/17 00:01:10;;;;;;;1.53;1.43;;;16.30;57.40;;;;;;5176563;28;20432;-48
2022/06/17 00:03:41;;;;;;;7.63;2.47;;;16.30;57.20;;;;;;5185266;28;20200;-50
2022/06/17 00:06:12;;;;;;;1.20;1.20;;;16.30;57.30;;;;;;5183480;28;20184;-50
2022/06/17 00:08:45;;;;;;;2.90;1.73;;;16.30;57.30;;;;;;5183951;28;20181;-51
2022/06/17 00:11:30;;;;;;;1.40;1.30;;;16.30;57.40;;;;;;5178709;28;20180;-50
2022/06/17 00:14:01;;;;;;;3.83;1.20;;;16.30;57.60;;;;;;5182032;28;21430;-51
2022/06/17 00:16:32;;;;;;;0.90;0.90;;;16.20;57.50;;;;;;5174494;28;20436;-49
2022/06/17 00:19:03;;;;;;;2.50;1.50;;;16.20;57.70;;;;;;5166244;28;20435;-51
2022/06/17 00:21:37;;;;;;;2.93;2.10;;;16.20;57.80;;;;;;5185074;28;20291;-50
2022/06/17 00:24:14;;;;;;;4.40;1.87;;;16.20;57.90;;;;;;5182219;28;20173;-51
2022/06/17 00:26:45;;;;;;;4.73;1.80;;;16.20;58.10;;;;;;5183496;28;20435;-51
2022/06/17 00:29:19;;;;;;;1.50;1.40;;;16.20;58.20;;;;;;5176529;28;20939;-49
2022/06/17 00:31:50;;;;;;;1.93;1.83;;;16.20;58.40;;;;;;5179230;28;20989;-51
2022/06/17 00:34:20;;;;;;;2.83;2.10;;;16.20;58.50;;;;;;5175408;28;20444;-49
2022/06/17 00:37:00;;;;;;;6.67;1.87;;;16.10;58.50;;;;;;5181097;28;20501;-51
2022/06/17 00:39:32;;;;;;;3.57;1.90;;;16.10;58.60;;;;;;5181008;28;20190;-51
2022/06/17 00:42:07;;;;;;;3.00;1.60;;;16.10;58.70;;;;;;5180902;28;20804;-51
2022/06/17 00:44:54;;;;;;;1.73;1.60;;;16.10;58.80;;;;;;5176013;28;20435;-50
2022/06/17 00:47:50;;;;;;;3.67;1.93;;;16.10;59.00;;;;;;5174354;28;20810;-51
2022/06/17 00:50:32;;;;;;;1.47;1.37;;;16.10;59.20;;;;;;5173775;28;20440;-49
2022/06/17 00:53:15;;;;;;;5.27;2.13;;;16.00;59.10;;;;;;5178379;28;20463;-51
2022/06/17 00:55:58;;;;;;;7.47;1.90;;;16.00;59.40;;;;;;5178649;28;20442;-51
2022/06/17 00:58:34;;;;;;;2.27;2.00;;;16.00;59.60;;;;;;5176409;28;20898;-50
2022/06/17 01:01:11;;;;;;;2.50;1.87;;;16.00;59.70;;;;;;5177462;28;20948;-51
2022/06/17 01:03:41;;;;;;;3.10;2.77;;;16.00;59.90;;;;;;5177047;28;20497;-52
2022/06/17 01:06:15;;;;;;;4.00;2.57;;;16.00;60.10;;;;;;5182851;28;20475;-51
2022/06/17 01:11:50;;;;;;;4.43;2.10;;;16.00;60.90;;;;;;5178017;28;20622;-49
2022/06/17 01:14:21;;;;;;;1.63;1.60;;;16.00;61.40;;;;;;5195249;28;20909;-48
2022/06/17 01:16:53;;;;;;;1.57;1.57;;;16.00;61.90;;;;;;5180882;28;20435;-50
2022/06/17 01:19:44;;;;;;;6.23;1.80;;;15.90;62.40;;;;;;5177153;28;20811;-51
2022/06/17 01:22:32;;;;;;;4.67;1.70;;;15.90;62.70;;;;;;5173897;28;20981;-52
2022/06/17 01:25:24;;;;;;;3.13;1.67;;;15.80;63.30;;;;;;5182678;28;20958;-50
2022/06/17 01:27:58;;;;;;;2.20;1.13;;;15.80;64.20;;;;;;5180467;28;20435;-53
2022/06/17 01:30:36;;;;;;;2.30;1.60;;;15.80;64.80;;;;;;5175407;28;20443;-51
2022/06/17 01:33:26;;;;;;;6.93;1.60;;;15.70;65.40;;;;;;5178684;28;20950;-50
2022/06/17 01:36:15;;;;;;;1.27;1.20;;;15.70;66.10;;;;;;5175412;28;20439;-51
2022/06/17 01:38:50;;;;;;;1.50;1.20;;;15.70;66.50;;;;;;5177656;28;20525;-52
2022/06/17 01:41:25;;;;;;;5.20;1.50;;;15.60;67.20;;;;;;5181349;28;20524;-51
2022/06/17 01:44:05;;;;;;;3.80;1.40;;;15.50;67.70;;;;;;5181628;28;20427;-51
2022/06/17 01:46:42;;;;;;;2.83;1.60;;;15.50;68.40;;;;;;5174572;28;20431;-51
2022/06/17 01:49:17;;;;;;;1.60;1.47;;;15.50;69.40;;;;;;5179112;28;20442;-52
2022/06/17 01:51:55;;;;;;;4.07;1.83;;;15.40;70.30;;;;;;5176421;28;20461;-50
2022/06/17 01:54:37;;;;;;;3.57;1.67;;;15.40;71.40;;;;;;5176231;28;20485;-50
2022/06/17 01:57:10;;;;;;;3.17;1.80;;;15.30;72.30;;;;;;5181932;28;20450;-50
2022/06/17 01:59:51;;;;;;;2.17;2.07;;;15.30;74.10;;;;;;5177503;28;20438;-51
2022/06/17 02:02:24;;;;;;;3.70;1.70;;;15.30;74.40;;;;;;5176998;28;20533;-49
2022/06/17 02:05:00;;;;;;;1.33;1.33;;;15.30;75.80;;;;;;5177257;28;20451;-50
2022/06/17 02:07:37;;;;;;;6.27;1.70;;;15.20;76.80;;;;;;5181847;28;20514;-51
2022/06/17 02:10:08;;;;;;;5.73;1.40;;;15.20;78.30;;;;;;5181137;28;20449;-50
2022/06/17 02:12:40;;;;;;;1.03;1.03;;;15.20;78.90;;;;;;5179702;28;20463;-50
2022/06/17 02:15:12;;;;;;;2.50;1.77;;;15.20;79.60;;;;;;5180567;28;20204;-52
2022/06/17 02:17:46;;;;;;;5.57;1.23;;;15.20;80.30;;;;;;5174395;28;20915;-50
2022/06/17 02:20:17;;;;;;;1.73;1.63;;;15.20;81.30;;;;;;5175118;28;20455;-49
2022/06/17 02:22:49;;;;;;;3.20;1.63;;;15.10;82.20;;;;;;5180910;28;20479;-51
2022/06/17 02:25:25;;;;;;;1.10;1.10;;;15.10;83.50;;;;;;5180433;28;20463;-52
2022/06/17 02:27:59;;;;;;;1.30;1.30;;;15.10;84.60;;;;;;5180115;28;20435;-51
2022/06/17 02:30:31;;;;;;;2.80;1.77;;;15.10;85.90;;;;;;5183691;28;20458;-51
2022/06/17 02:33:05;;;;;;;1.43;1.33;;;15.10;87.00;;;;;;5179249;28;20524;-51
2022/06/17 02:36:02;;;;;;;2.20;2.10;;;15.00;87.70;;;;;;5177685;28;20443;-51
2022/06/17 02:38:34;;;;;;;1.50;1.40;;;15.00;88.30;;;;;;5177094;28;20572;-51
2022/06/17 02:41:16;;;;;;;5.50;2.00;;;15.00;89.60;;;;;;5179255;28;20439;-50
2022/06/17 02:43:52;;;;;;;2.23;1.73;;;14.90;90.50;;;;;;5175198;28;20439;-51
2022/06/17 02:46:29;;;;;;;4.97;2.13;;;14.90;91.00;;;;;;5177641;28;20431;-52
2022/06/17 02:49:02;;;;;;;1.50;1.50;;;14.90;91.60;;;;;;5186924;28;20427;-51
2022/06/17 02:51:37;;;;;;;2.20;1.83;;;14.90;91.90;;;;;;5185077;28;20858;-50
2022/06/17 02:54:30;;;;;;;2.10;1.90;;;14.90;92.40;;;;;;5195296;28;20438;-49
2022/06/17 02:57:02;;;;;;;2.80;2.57;;;14.90;92.70;;;;;;5182479;28;20442;-51
2022/06/17 02:59:43;;;;;;;2.40;1.87;;;14.90;93.20;;;;;;5180857;28;20452;-50
2022/06/17 03:02:17;;;;;;;1.67;1.57;;;14.90;93.60;;;;;;5180065;28;21076;-51
2022/06/17 03:04:48;;;;;;;3.70;2.10;;;14.80;94.00;;;;;;5185647;28;20989;-51
2022/06/17 03:07:22;;;;;;;2.27;2.07;;;14.80;94.60;;;;;;5186364;28;20427;-51
2022/06/17 03:09:53;;;;;;;3.20;2.13;;;14.80;95.10;;;;;;5183109;28;20976;-51
2022/06/17 03:12:27;;;;;;;4.73;2.97;;;14.80;95.40;;;;;;5182994;28;20541;-52
2022/06/17 03:15:06;;;;;;;6.77;2.53;;;14.80;95.50;;;;;;5178492;28;20175;-52
2022/06/17 03:17:40;;;;;;;2.73;1.97;;;14.80;95.80;;;;;;5176344;28;20530;-51
2022/06/17 03:20:19;;;;;;;7.80;2.10;;;14.80;96.20;;;;;;5185263;28;20455;-52
2022/06/17 03:22:56;;;;;;;4.87;2.10;;;14.80;96.80;;;;;;5183900;28;20466;-50
2022/06/17 03:25:38;;;;;;;5.80;2.50;;;14.80;97.30;;;;;;5183130;28;20509;-52
2022/06/17 03:28:12;;;;;;;2.97;2.77;;;14.80;97.60;;;;;;5186043;28;20440;-52
2022/06/17 03:30:56;;;;;;;2.80;2.53;;;14.80;97.90;;;;;;5182497;28;20462;-51
2022/06/17 03:33:43;;;;;;;2.33;2.03;;;14.80;98.00;;;;;;5181667;28;20994;-52
2022/06/17 03:36:45;;;;;;;2.20;1.70;;;14.80;98.30;;;;;;5178582;28;20525;-52
2022/06/17 03:39:36;;;;;;;2.57;1.80;;;14.80;98.60;;;;;;5177904;28;20473;-52
2022/06/17 03:42:15;;;;;;;3.03;1.97;;;14.80;98.90;;;;;;5177559;28;20555;-51
2022/06/17 03:44:55;;;;;;;9.50;2.10;;;14.90;99.00;;;;;;5177956;28;20769;-51
2022/06/17 03:47:41;;;;;;;2.77;2.37;;;14.90;99.00;;;;;;5176461;28;20435;-51
2022/06/17 03:50:26;;;;;;;2.90;1.60;;;14.90;99.00;;;;;;5179158;28;20422;-50
2022/06/17 03:53:09;;;;;;;1.83;1.57;;;14.90;98.90;;;;;;5178989;28;20970;-51
2022/06/17 03:55:40;;;;;;;6.30;1.97;;;14.90;98.80;;;;;;5177756;28;20443;-51
2022/06/17 03:58:15;;;;;;;2.13;1.50;;;15.00;98.80;;;;;;5181632;28;20858;-49
2022/06/17 04:00:55;;;;;;;2.00;1.90;;;15.00;98.80;;;;;;5180606;28;20226;-48
2022/06/17 04:03:31;;;;;;;3.60;1.83;;;15.10;98.60;;;;;;5178884;28;20474;-51
2022/06/17 04:06:09;;;;;;;3.73;1.80;;;15.10;98.50;;;;;;5179049;28;20442;-51
2022/06/17 04:08:53;;;;;;;2.77;1.60;;;15.20;98.20;;;;;;5180268;28;20954;-52
2022/06/17 04:11:35;;;;;;;3.17;1.73;;;15.20;97.90;;;;;;5180280;28;20791;-51
2022/06/17 04:14:41;;;;;;;1.80;1.70;;;15.30;97.50;;;;;;5172213;28;20432;-52
2022/06/17 04:17:25;;;;;;;4.60;1.70;;;15.40;97.40;;;;;;5183165;28;20442;-51
2022/06/17 04:20:30;;;;;;;2.10;2.00;;;15.50;97.20;;;;;;5180230;28;20936;-52
2022/06/17 04:23:10;;;;;;;1.90;1.80;;;15.60;96.80;;;;;;5180258;28;20979;-51
2022/06/17 04:25:43;;;;;;;2.20;2.00;;;15.80;96.10;;;;;;5183394;28;20535;-52
2022/06/17 04:28:22;;;;;;;2.03;1.80;;;16.00;95.60;;;;;;5180610;28;20431;-52
2022/06/17 04:30:59;;;;;;;2.30;2.07;;;16.20;95.10;;;;;;5182198;28;21034;-52
2022/06/17 04:33:45;;;;;;;3.03;1.70;;;16.40;94.30;;;;;;5180198;28;20458;-50
2022/06/17 04:36:24;;;;;;;2.03;1.90;;;16.60;93.50;;;;;;5173331;28;20494;-51
2022/06/17 04:39:02;;;;;;;3.70;3.40;;;16.80;92.90;;;;;;5179949;28;20795;-52
2022/06/17 04:41:37;;;;;;;6.17;1.93;;;16.80;92.50;;;;;;5172263;28;20462;-52
2022/06/17 04:44:13;;;;;;;2.13;1.93;;;16.60;92.80;;;;;;5176210;28;20438;-53
2022/06/17 04:47:05;;;;;;;5.60;2.67;;;16.60;93.40;;;;;;5180796;28;20443;-53
2022/06/17 04:49:40;;;;;;;2.60;1.70;;;17.20;92.90;;;;;;5184578;28;20439;-53
2022/06/17 04:52:39;;;;;;;4.10;3.03;;;18.80;86.70;;;;;;5177132;28;20975;-53
2022/06/17 04:55:18;;;;;;;4.37;2.70;;;20.40;75.80;;;;;;5184218;28;20431;-53
2022/06/17 04:57:49;;;;;;;3.70;2.23;;;22.00;64.80;;;;;;5172556;28;20448;-53
2022/06/17 05:00:23;;;;;;;3.97;2.43;;;23.10;58.20;;;;;;5181608;28;20935;-50
2022/06/17 05:02:54;;;;;;;8.67;2.40;;;23.70;55.40;;;;;;5168084;28;20232;-50
2022/06/17 05:05:37;;;;;;;3.90;2.53;;;23.90;54.00;;;;;;5176807;28;20475;-52
2022/06/17 05:08:30;;;;;;;1.70;1.43;;;24.00;52.80;;;;;;5174511;28;20952;-52
2022/06/17 05:11:09;;;;;;;3.97;2.60;;;24.60;52.00;;;;;;5191084;28;20447;-52
2022/06/17 05:14:12;;;;;;;1.90;1.77;;;25.50;49.00;;;;;;5177700;28;20958;-53
2022/06/17 05:16:42;;;;;;;1.93;1.83;;;26.10;47.20;;;;;;5163433;28;20509;-52
2022/06/17 05:19:13;;;;;;;4.30;4.03;;;25.90;47.10;;;;;;5177063;28;20447;-54
2022/06/17 05:21:43;;;;;;;2.93;2.73;;;27.30;46.00;;;;;;5181518;28;20771;-52
2022/06/17 05:24:14;;;;;;;6.53;3.50;;;28.60;42.60;;;;;;5166513;28;20238;-53
2022/06/17 05:26:45;;;;;;;3.47;2.30;;;28.80;40.60;;;;;;5176068;28;20191;-52
2022/06/17 05:29:15;;;;;;;3.83;2.30;;;29.20;39.70;;;;;;5181591;28;20932;-52
2022/06/17 05:31:49;;;;;;;2.13;2.00;;;28.60;39.40;;;;;;5180891;28;20200;-53
2022/06/17 05:34:20;;;;;;;3.20;2.17;;;28.10;41.00;;;;;;5182901;28;20540;-53
2022/06/17 05:36:52;;;;;;;5.43;2.63;;;29.40;39.60;;;;;;5183224;28;20443;-53
2022/06/17 05:39:23;;;;;;;2.90;2.70;;;29.80;37.70;;;;;;5182832;28;20278;-53
2022/06/17 05:41:54;;;;;;;2.67;2.47;;;30.70;36.60;;;;;;5174916;28;20466;-53
2022/06/17 05:44:25;;;;;;;6.63;2.33;;;30.10;37.10;;;;;;5184841;28;20446;-54
2022/06/17 05:46:55;;;;;;;2.17;2.07;;;31.00;35.80;;;;;;5182331;28;20242;-51
2022/06/17 05:49:26;;;;;;;2.53;2.40;;;31.70;35.00;;;;;;5164722;28;20184;-55
2022/06/17 05:51:56;;;;;;;4.20;2.87;;;31.90;34.10;;;;;;5179417;28;20689;-54
2022/06/17 05:54:27;;;;;;;5.73;2.83;;;33.10;32.90;;;;;;5178696;28;20552;-51
2022/06/17 05:56:58;;;;;;;3.23;2.80;;;33.70;32.00;;;;;;5181401;28;20194;-53
2022/06/17 05:59:28;;;;;;;7.23;2.73;;;33.90;30.80;;;;;;5183766;28;20215;-53
2022/06/17 06:01:59;;;;;;;6.13;2.10;;;34.10;30.60;;;;;;5129815;28;1473400;-53
2022/06/17 06:04:31;;;;;;;4.27;2.27;;;33.90;30.70;;;;;;5182424;28;20180;-50
2022/06/17 06:07:01;;;;;;;4.10;2.83;;;34.70;30.20;;;;;;5184336;28;20179;-52
2022/06/17 06:09:32;;;;;;;3.30;2.10;;;35.20;29.40;;;;;;5181793;28;20187;-52
2022/06/17 06:12:03;;;;;;;3.05;2.85;;;35.70;29.00;;;;;;5180662;28;20686;-51
2022/06/17 06:14:34;;;;;;;2.50;2.30;;;36.10;28.30;;;;;;5178697;28;20226;-51
2022/06/17 06:17:04;;;;;;;5.22;2.50;;;36.60;28.10;;;;;;5183624;28;20184;-51
2022/06/17 06:19:35;;;;;;;1.77;1.77;;;36.60;27.20;;;;;;5181690;28;20188;-51
2022/06/17 06:22:06;;;;;;;3.15;2.35;;;36.40;27.70;;;;;;5184391;28;20223;-51
2022/06/17 06:24:36;;;;;;;1.67;1.58;;;36.10;27.70;;;;;;5185629;28;20342;-51
2022/06/17 06:27:07;;;;;;;1.90;1.80;;;36.40;27.90;;;;;;5183884;28;20188;-50
2022/06/17 06:29:37;;;;;;;5.65;1.90;;;36.70;27.50;;;;;;5178653;28;20191;-50
2022/06/17 06:32:10;;;;;;;7.22;2.67;;;37.10;26.80;;;;;;5181514;28;20219;-50
2022/06/17 06:34:41;;;;;;;4.32;2.20;;;36.60;26.40;;;;;;5183218;28;20172;-51
2022/06/17 06:37:12;;;;;;;2.40;2.20;;;36.10;27.30;;;;;;5183427;28;20954;-51
2022/06/17 06:39:43;;;;;;;2.00;1.95;;;36.40;27.00;;;;;;5179648;28;20559;-49
2022/06/17 06:42:14;;;;;;;12.15;2.42;;;36.00;26.90;;;;;;5181537;28;20223;-51
2022/06/17 06:44:44;;;;;;;8.90;2.13;;;35.90;26.70;;;;;;5177386;28;20198;-50
2022/06/17 06:47:15;;;;;;;1.90;1.80;;;35.70;27.40;;;;;;5172698;28;20186;-51
2022/06/17 06:49:45;;;;;;;3.90;2.28;;;35.80;27.20;;;;;;5176789;28;20189;-50
2022/06/17 06:52:16;;;;;;;2.20;2.00;;;35.90;26.80;;;;;;5164863;28;20230;-51
2022/06/17 06:54:47;;;;;;;2.38;2.15;;;36.10;27.00;;;;;;5159072;28;20600;-51
2022/06/17 06:57:19;;;;;;;1.52;1.42;;;36.80;26.50;;;;;;5160342;28;20202;-50
2022/06/17 06:59:49;;;;;;;2.47;2.28;;;37.10;26.30;;;;;;5160858;28;20275;-51
2022/06/17 07:02:20;;;;;;;2.10;2.00;;;37.80;25.80;;;;;;5172700;28;20636;-51
2022/06/17 07:04:51;;;;;;;1.60;1.58;;;37.90;25.20;;;;;;5179096;28;20183;-51
2022/06/17 07:07:21;;;;;;;8.80;2.20;;;38.10;25.20;;;;;;5175799;28;20180;-52
2022/06/17 07:09:52;;;;;;;6.05;2.08;;;38.10;25.10;;;;;;5172673;28;20282;-51
2022/06/17 07:12:22;;;;;;;2.63;1.83;;;37.80;25.20;;;;;;5175223;28;20575;-51
2022/06/17 07:14:53;;;;;;;9.02;2.38;;;38.10;25.10;;;;;;5176414;28;20259;-53
2022/06/17 07:17:24;;;;;;;5.32;1.80;;;38.30;24.70;;;;;;5180673;28;20196;-52
2022/06/17 07:19:54;;;;;;;3.60;2.25;;;38.50;24.60;;;;;;5182327;28;20247;-51
2022/06/17 07:22:25;;;;;;;5.72;2.10;;;37.80;24.70;;;;;;5182401;28;20270;-51
2022/06/17 07:24:55;;;;;;;7.00;1.95;;;37.30;24.50;;;;;;5179332;28;20180;-51
2022/06/17 07:27:26;;;;;;;9.52;1.88;;;36.20;25.00;;;;;;5178441;28;20203;-50
2022/06/17 07:29:57;;;;;;;2.13;2.03;;;34.90;26.50;;;;;;5177706;28;20180;-51
2022/06/17 07:32:27;;;;;;;2.15;1.65;;;35.00;27.00;;;;;;5181295;28;20215;-52
2022/06/17 07:34:58;;;;;;;2.20;2.10;;;35.20;26.80;;;;;;5186821;28;20290;-51
2022/06/17 07:40:17;;;;;;;2.05;1.83;;;34.90;26.90;;;;;;5181136;28;20183;-52
2022/06/17 07:42:48;;;;;;;3.38;2.28;;;35.80;26.60;;;;;;5177078;28;20215;-52
2022/06/17 07:45:19;;;;;;;7.55;1.70;;;36.50;26.10;;;;;;5172524;28;20179;-54
2022/06/17 07:47:51;;;;;;;2.00;1.55;;;36.20;25.50;;;;;;5184527;28;20176;-50
2022/06/17 07:50:32;;;;;;;3.10;1.73;;;34.30;27.00;;;;;;5182961;28;20167;-52
2022/06/17 07:53:03;;;;;;;2.00;1.80;;;34.00;28.20;;;;;;5186639;28;20271;-51
2022/06/17 07:55:34;;;;;;;4.07;2.13;;;33.90;27.20;;;;;;5178603;28;20305;-51
2022/06/17 07:58:05;;;;;;;2.83;1.80;;;33.70;28.10;;;;;;5178220;28;20198;-51
2022/06/17 08:00:39;;;;;;;4.13;1.60;;;34.00;28.40;;;;;;5184553;28;20187;-52
2022/06/17 08:03:12;;;;;;;5.22;1.77;;;34.90;27.50;;;;;;5177682;28;20248;-50
2022/06/17 08:05:46;;;;;;;2.33;1.50;;;35.60;26.20;;;;;;5167648;28;20188;-50
2022/06/17 08:08:21;;;;;;;4.15;2.38;;;34.90;26.60;;;;;;5180880;28;20195;-51
2022/06/17 08:10:57;;;;;;;1.42;1.42;;;35.50;26.40;;;;;;5185271;28;20195;-51
2022/06/17 08:13:28;;;;;;;2.20;1.45;;;35.30;26.60;;;;;;5181525;28;20203;-50
2022/06/17 08:16:01;;;;;;;2.00;1.60;;;35.40;26.20;;;;;;5180792;28;20184;-50
2022/06/17 08:18:33;;;;;;;2.10;1.53;;;33.50;27.10;;;;;;5185488;28;20279;-52
2022/06/17 08:21:04;;;;;;;10.43;2.00;;;34.00;27.40;;;;;;5184393;28;20175;-52
2022/06/17 08:23:35;;;;;;;10.53;1.93;;;34.00;27.40;;;;;;5185718;28;20204;-51
2022/06/17 08:26:05;;;;;;;2.43;1.70;;;33.50;27.80;;;;;;5175585;28;20188;-51
2022/06/17 08:28:38;;;;;;;5.57;1.60;;;33.40;27.20;;;;;;5178710;28;20187;-51
2022/06/17 08:31:08;;;;;;;6.17;1.90;;;34.00;27.30;;;;;;5184704;28;20183;-50
2022/06/17 08:33:39;;;;;;;10.33;2.90;;;33.10;27.20;;;;;;5182471;28;20204;-53
2022/06/17 08:36:16;;;;;;;25.97;5.63;;;33.00;28.00;;;;;;5183932;28;20258;-53
2022/06/17 08:38:54;;;;;;;1.83;1.00;;;32.40;28.60;;;;;;5177664;28;20194;-52
2022/06/17 08:41:28;;;;;;;2.93;1.47;;;32.50;28.10;;;;;;5182993;28;20187;-52
2022/06/17 08:44:24;;;;;;;2.23;1.90;;;33.00;27.20;;;;;;5179666;28;20290;-51
2022/06/17 08:47:14;;;;;;;13.10;2.30;;;33.30;27.60;;;;;;5171381;28;20234;-52
2022/06/17 08:50:11;;;;;;;6.60;2.43;;;34.40;26.80;;;;;;5177183;28;20208;-53
2022/06/17 08:53:02;;;;;;;21.13;2.13;;;33.50;27.20;;;;;;5185749;28;20211;-51
2022/06/17 08:56:07;;;;;;;1.17;1.17;;;32.00;28.60;;;;;;5172076;28;20184;-53
2022/06/17 08:59:13;;;;;;;2.20;1.50;;;29.70;30.20;;;;;;5183007;28;20203;-50
2022/06/17 09:01:57;;;;;;;5.10;1.40;;;27.60;33.40;;;;;;5176780;28;20466;-51
2022/06/17 09:04:51;;;;;;;3.47;1.30;;;26.40;35.00;;;;;;5177425;28;20939;-52
2022/06/17 09:07:56;;;;;;;0.90;0.90;;;25.60;36.30;;;;;;5179412;28;20446;-51
2022/06/17 09:10:57;;;;;;;3.27;1.77;;;25.30;37.50;;;;;;5181145;28;20573;-49
2022/06/17 09:13:53;;;;;;;2.37;0.83;;;25.10;37.30;;;;;;5180534;28;20836;-50
2022/06/17 09:16:37;;;;;;;0.80;0.80;;;24.90;37.10;;;;;;5180665;28;20582;-51
2022/06/17 09:19:10;;;;;;;2.47;2.03;;;24.30;36.80;;;;;;5179164;28;20457;-50
2022/06/17 09:21:49;;;;;;;1.17;1.17;;;24.00;37.20;;;;;;5176788;28;20481;-49
2022/06/17 09:24:28;;;;;;;1.10;0.97;;;23.80;37.70;;;;;;5185356;28;20436;-51
2022/06/17 09:27:03;;;;;;;1.57;1.57;;;23.80;38.50;;;;;;5184409;28;20764;-52
2022/06/17 09:30:00;;;;;;;2.70;1.87;;;23.70;38.30;;;;;;5180741;28;20939;-50
2022/06/17 09:32:39;;;;;;;3.90;1.53;;;23.70;38.80;;;;;;5172295;28;20463;-49
2022/06/17 09:35:15;;;;;;;32.60;3.07;;;24.00;38.70;;;;;;5178719;28;20454;-50
2022/06/17 09:37:48;;;;;;;1.90;1.60;;;24.00;38.10;;;;;;5184114;28;20443;-50
2022/06/17 09:40:35;;;;;;;1.70;1.13;;;23.80;38.90;;;;;;5183539;28;20431;-51
2022/06/17 09:43:38;;;;;;;3.87;2.13;;;23.80;39.50;;;;;;5178953;28;20513;-52
2022/06/17 09:46:20;;;;;;;1.03;1.03;;;24.10;39.00;;;;;;5178359;28;20438;-50
2022/06/17 09:49:18;;;;;;;1.00;1.00;;;24.30;38.10;;;;;;5182797;28;20806;-52
2022/06/17 09:52:01;;;;;;;0.50;0.50;;;24.20;36.00;;;;;;5178890;28;20559;-51
2022/06/17 09:54:40;;;;;;;0.83;0.83;;;24.10;36.00;;;;;;5184383;28;20439;-53
2022/06/17 09:57:19;;;;;;;0.90;0.90;;;23.90;36.20;;;;;;5174956;28;20452;-51
2022/06/17 09:59:57;;;;;;;1.63;1.20;;;23.80;37.80;;;;;;5179403;28;20439;-52
2022/06/17 10:02:35;;;;;;;1.17;1.10;;;24.00;38.30;;;;;;5180090;28;20921;-51
2022/06/17 10:05:49;;;;;;;0.70;0.70;;;24.10;38.00;;;;;;5164846;28;20927;-53
2022/06/17 10:08:38;;;;;;;0.80;0.70;;;24.10;36.40;;;;;;5178004;28;20432;-52
2022/06/17 10:11:50;;;;;;;2.67;0.90;;;24.00;36.70;;;;;;5173251;28;20428;-53
2022/06/17 10:14:41;;;;;;;0.97;0.97;;;24.00;36.40;;;;;;5163087;28;20442;-52
2022/06/17 10:20:31;;;;;;;1.97;1.80;;;23.80;36.80;;;;;;5177412;28;20415;-50
2022/06/17 10:23:18;;;;;;;0.80;0.80;;;24.10;37.10;;;;;;5180228;28;20528;-54
2022/06/17 10:26:08;;;;;;;0.70;0.70;;;24.00;36.80;;;;;;5177218;28;20537;-50
2022/06/17 10:29:11;;;;;;;0.87;0.87;;;23.90;36.80;;;;;;5173139;28;20439;-51
2022/06/17 10:31:46;;;;;;;1.23;1.13;;;23.90;37.00;;;;;;5173424;28;20451;-55
2022/06/17 10:34:42;;;;;;;0.87;0.87;;;24.00;37.20;;;;;;5160971;28;20438;-52
2022/06/17 10:37:13;;;;;;;1.53;1.00;;;24.10;36.90;;;;;;5173399;28;20442;-53
2022/06/17 10:39:45;;;;;;;3.17;1.00;;;24.20;38.30;;;;;;5169958;28;20461;-51
2022/06/17 10:42:18;;;;;;;1.20;0.87;;;24.30;37.10;;;;;;5176723;28;20458;-51
2022/06/17 10:44:52;;;;;;;2.10;1.00;;;24.00;36.70;;;;;;5179302;28;20431;-51
2022/06/17 10:47:46;;;;;;;3.83;1.07;;;24.00;36.60;;;;;;5181828;28;21021;-51
2022/06/17 10:50:22;;;;;;;1.50;1.40;;;24.30;37.60;;;;;;5176989;28;20438;-53
2022/06/17 10:53:00;;;;;;;1.70;1.13;;;24.50;37.80;;;;;;5172912;28;20541;-52
2022/06/17 10:55:34;;;;;;;1.63;1.53;;;24.50;36.70;;;;;;5176882;28;20439;-51
2022/06/17 10:58:05;;;;;;;6.40;2.13;;;24.40;37.10;;;;;;5174216;28;20459;-51
2022/06/17 11:00:50;;;;;;;2.07;1.03;;;24.50;36.80;;;;;;5172955;28;20468;-52
2022/06/17 11:03:34;;;;;;;0.77;0.70;;;24.30;36.40;;;;;;5177411;28;20727;-52
2022/06/17 11:06:16;;;;;;;5.97;5.47;;;24.20;37.80;;;;;;5182597;28;20789;-49
2022/06/17 11:08:59;;;;;;;2.67;2.47;;;24.10;38.20;;;;;;5187620;28;20487;-51
2022/06/17 11:12:04;;;;;;;16.37;10.57;;;24.10;38.00;;;;;;5176771;28;20439;-53
2022/06/17 11:14:46;;;;;;;0.90;0.90;;;24.20;38.00;;;;;;5185314;28;20569;-51
2022/06/17 11:17:20;;;;;;;1.00;1.00;;;24.10;38.00;;;;;;5183391;28;20430;-52
2022/06/17 11:19:55;;;;;;;0.93;0.93;;;23.90;38.50;;;;;;5195264;28;20451;-51
2022/06/17 11:22:36;;;;;;;1.00;1.00;;;24.10;38.50;;;;;;5148866;28;20605;-53
2022/06/17 11:25:27;;;;;;;1.00;1.00;;;24.30;38.40;;;;;;5184566;28;20435;-52
2022/06/17 11:28:00;;;;;;;4.43;1.50;;;24.50;37.90;;;;;;5183652;28;20442;-52
2022/06/17 11:30:34;;;;;;;4.00;1.13;;;24.50;37.40;;;;;;5185942;28;20435;-51
2022/06/17 11:33:22;;;;;;;3.60;1.60;;;24.50;37.80;;;;;;5180021;28;20467;-51
2022/06/17 11:36:01;;;;;;;1.90;1.07;;;24.60;38.50;;;;;;5180801;28;20946;-51
2022/06/17 11:38:33;;;;;;;4.93;1.23;;;24.70;36.80;;;;;;5183997;28;20907;-55
2022/06/17 11:41:05;;;;;;;2.23;1.20;;;24.80;36.10;;;;;;5186937;28;20426;-52
2022/06/17 11:43:39;;;;;;;3.40;1.37;;;24.90;36.10;;;;;;5184899;28;20484;-50
2022/06/17 11:46:21;;;;;;;1.20;1.20;;;24.90;36.60;;;;;;5183411;28;20435;-52
2022/06/17 11:49:00;;;;;;;1.33;1.33;;;25.10;37.00;;;;;;5184848;28;20435;-50
2022/06/17 11:51:33;;;;;;;1.47;1.10;;;24.90;36.80;;;;;;5174218;28;20458;-50
2022/06/17 11:54:20;;;;;;;1.40;1.40;;;24.90;36.60;;;;;;5184259;28;20992;-51
2022/06/17 11:56:53;;;;;;;3.50;3.17;;;24.90;37.40;;;;;;5183176;28;20521;-53
2022/06/17 11:59:41;;;;;;;18.17;7.30;;;24.90;37.60;;;;;;5181491;28;20883;-50
2022/06/17 12:02:11;;;;;;;8.47;4.37;;;25.00;37.00;;;;;;5193988;22;21123;-55
2022/06/17 12:04:49;;;;;;;4.50;3.10;;;25.10;37.00;;;;;;5155499;28;24304;-57
2022/06/17 12:07:34;;;;;;;5.60;4.53;;;25.20;37.10;;;;;;5155520;28;20628;-58
2022/06/17 12:10:32;;;;;;;1.87;1.73;;;25.40;36.40;;;;;;5147537;28;20519;-57
2022/06/17 12:13:11;;;;;;;1.07;1.07;;;25.40;36.70;;;;;;5143515;28;20473;-58
2022/06/17 12:15:50;;;;;;;1.80;1.27;;;25.50;36.10;;;;;;5145128;28;20468;-56
2022/06/17 12:18:30;;;;;;;4.40;0.80;;;25.40;35.30;;;;;;5145359;28;20440;-57
2022/06/17 12:21:31;;;;;;;0.87;0.87;;;25.50;35.50;;;;;;5142623;28;20963;-58
2022/06/17 12:24:13;;;;;;;0.70;0.70;;;25.80;35.70;;;;;;5138087;28;20543;-57
2022/06/17 12:26:52;;;;;;;0.93;0.93;;;26.00;34.90;;;;;;5142621;28;20476;-57
2022/06/17 12:29:33;;;;;;;1.23;1.10;;;26.20;35.00;;;;;;5144377;28;21620;-57
2022/06/17 12:32:19;;;;;;;2.60;1.10;;;26.10;34.70;;;;;;5151508;28;20441;-57
2022/06/17 12:35:05;;;;;;;1.40;1.17;;;26.00;34.90;;;;;;5142119;28;20447;-57
2022/06/17 12:38:04;;;;;;;2.50;1.07;;;25.80;34.50;;;;;;5139969;28;20511;-57
2022/06/17 12:40:57;;;;;;;0.93;0.93;;;25.70;35.40;;;;;;5142382;28;20441;-58
2022/06/17 12:43:37;;;;;;;10.93;1.23;;;25.80;35.10;;;;;;5134953;28;20492;-55
2022/06/17 12:46:43;;;;;;;1.30;1.20;;;25.80;34.70;;;;;;5136642;28;20484;-55
2022/06/17 12:55:47;;;;;;;1.10;1.00;;;25.90;33.80;;;;;;5140329;28;20437;-56
2022/06/17 12:58:28;;;;;;;1.80;1.70;;;25.90;34.20;;;;;;5140355;28;20456;-59
2022/06/17 13:01:07;;;;;;;1.70;0.90;;;26.10;34.40;;;;;;5155113;28;20492;-56
2022/06/17 13:03:56;;;;;;;4.13;1.20;;;26.20;34.00;;;;;;5142177;28;20479;-56
2022/06/17 13:06:41;;;;;;;1.40;1.30;;;26.40;33.90;;;;;;5137459;28;20444;-56
2022/06/17 13:09:43;;;;;;;1.90;1.07;;;26.70;33.90;;;;;;5145054;28;20444;-57
2022/06/17 13:12:19;;;;;;;1.77;1.67;;;27.10;32.70;;;;;;5139784;28;20484;-56
2022/06/17 13:15:17;;;;;;;8.37;3.90;;;27.20;33.10;;;;;;5143947;28;20441;-58
2022/06/17 13:18:04;;;;;;;1.13;1.07;;;27.40;32.40;;;;;;5142251;28;20472;-57
2022/06/17 13:20:40;;;;;;;1.90;0.80;;;27.20;31.90;;;;;;5139613;28;20971;-57
2022/06/17 13:23:14;;;;;;;0.87;0.87;;;27.20;32.50;;;;;;5136004;28;20469;-57
2022/06/17 13:25:49;;;;;;;2.93;1.60;;;27.30;32.50;;;;;;5139192;28;20446;-56
2022/06/17 13:28:33;;;;;;;2.60;1.50;;;27.60;32.60;;;;;;5141997;28;20447;-56
2022/06/17 13:31:15;;;;;;;0.73;0.73;;;27.80;31.40;;;;;;5145158;28;20523;-57
2022/06/17 13:33:56;;;;;;;0.87;0.87;;;28.00;30.90;;;;;;5144609;28;20506;-56
2022/06/17 13:36:35;;;;;;;5.13;1.50;;;27.50;30.80;;;;;;5142288;28;20440;-57
2022/06/17 13:39:13;;;;;;;1.10;1.10;;;27.40;31.80;;;;;;5141475;28;20765;-57
2022/06/17 13:42:01;;;;;;;6.33;2.20;;;27.40;30.90;;;;;;5159049;28;20456;-57
2022/06/17 13:45:10;;;;;;;6.00;1.60;;;27.60;30.90;;;;;;5140325;28;21076;-60
2022/06/17 13:48:23;;;;;;;2.40;2.20;;;27.90;31.20;;;;;;5141619;28;20437;-56
2022/06/17 13:51:06;;;;;;;2.10;2.00;;;28.00;30.60;;;;;;5144853;28;20441;-57
2022/06/17 13:53:48;;;;;;;4.30;2.23;;;28.10;30.30;;;;;;5134918;28;20456;-57
2022/06/17 13:56:38;;;;;;;2.00;1.90;;;28.10;30.60;;;;;;5143640;28;20451;-59
2022/06/17 13:59:29;;;;;;;3.00;2.80;;;28.00;30.20;;;;;;5156026;28;20524;-58
2022/06/17 14:02:48;;;;;;;0.70;0.70;;;28.00;30.50;;;;;;5140216;28;20441;-58